Whale Watcher II — WDB8211 — position and weather

sailwx.info

Track history (hours):
 
Tides and Currents Weather Stations Pressure Air Temp Water Temp Dewpoint Dewpoint Depression Visibility Wind Speed Wind Dir Waves Ship Positions

Whale Watcher II

Owner: Ronald L. Robbins LLC, Cape May, NJ. More information available from US FCC via Universal Licensing System and Coast Guard Vessel Documentation Center.

Last reported at 2015-Jan-31 00:32 UTC. Time now 2015-Jan-31 00:47 UTC.
Position N 29°55' W 090°04'.

Length 22 m.

Type: Towing. MMSI: 367011790.

Date/timePositionNaut miles runAvg speedWind from/ knotsBaromVisibWave heightAir tempDewpointWater temp
2015-Jan-31 00:32N 29°55' W 090°04'0 0.0
2015-Jan-30 23:32N 29°55' W 090°04'0 0.4
2015-Jan-30 22:33N 29°55' W 090°04'10 0.3
2015-Jan-29 11:05N 29°58' W 090°16'0 0.0
2015-Jan-29 10:12N 29°58' W 090°16'0 0.0
2015-Jan-29 09:26N 29°58' W 090°16'3 3.5
2015-Jan-29 08:33N 29°56' W 090°13'4 3.6
2015-Jan-29 07:29N 29°56' W 090°08'4 4.3
2015-Jan-29 06:31N 29°55' W 090°04'0 0.2
2015-Jan-29 05:10N 29°56' W 090°04'0 0.0
2015-Jan-29 03:31N 29°56' W 090°04'0 0.0
2015-Jan-29 02:33N 29°56' W 090°04'0 0.0
2015-Jan-29 01:29N 29°56' W 090°04'0 0.0
2015-Jan-29 00:31N 29°56' W 090°04'0 0.0
2015-Jan-28 23:31N 29°56' W 090°04'0 0.0
2015-Jan-28 22:33N 29°56' W 090°04'0 0.0
2015-Jan-28 21:33N 29°56' W 090°04'0 0.0
2015-Jan-28 20:33N 29°56' W 090°04'0 0.0
2015-Jan-28 19:33N 29°56' W 090°04'2 2.3
2015-Jan-28 18:33N 29°57' W 090°01'3 0.2
2015-Jan-28 01:29N 29°56' W 089°59'4 4.0
2015-Jan-28 00:25N 29°56' W 090°04'0 0.2
2015-Jan-27 23:28N 29°55' W 090°04'0 0.0
2015-Jan-27 22:33N 29°55' W 090°04'3 0.3
2015-Jan-27 13:27N 29°56' W 090°00'15 3.1
2015-Jan-27 08:24N 29°41' W 089°58'15 0.6
2015-Jan-26 08:31N 29°55' W 090°05'0 0.0
2015-Jan-26 07:27N 29°55' W 090°05'0 0.0
2015-Jan-26 05:24N 29°55' W 090°05'1 1.2
2015-Jan-26 04:29N 29°55' W 090°04'0 0.1
2015-Jan-26 03:33N 29°55' W 090°04'0 0.1
2015-Jan-26 02:33N 29°56' W 090°04'0 0.0
2015-Jan-26 01:31N 29°56' W 090°04'5 4.4
2015-Jan-26 00:17N 29°57' W 090°10'2 0.2
2015-Jan-25 15:17N 29°56' W 090°08'4 4.3
2015-Jan-25 14:18N 29°56' W 090°04'2 2.5
2015-Jan-25 13:27N 29°57' W 090°02'4 4.4
2015-Jan-25 12:32N 29°55' W 089°58'3 0.3
2015-Jan-25 04:29N 29°53' W 089°57'3 1.6
2015-Jan-25 02:33N 29°56' W 089°58'5 4.4
2015-Jan-25 01:31N 29°56' W 090°04'0 0.0
2015-Jan-25 00:32N 29°56' W 090°04'0 0.0
2015-Jan-24 23:24N 29°56' W 090°04'0 0.0
2015-Jan-24 22:33N 29°56' W 090°04'0 0.2
2015-Jan-24 21:33N 29°56' W 090°03'0 0.0
2015-Jan-24 20:33N 29°56' W 090°03'4 0.1
2015-Jan-23 02:32N 29°56' W 089°58'11 0.7
2015-Jan-22 10:03N 29°56' W 090°12'3 5.5
2015-Jan-22 09:33N 29°57' W 090°09'4 4.2
2015-Jan-22 08:30N 29°55' W 090°05'2 1.6
2015-Jan-22 07:31N 29°56' W 090°03'4 4.2
2015-Jan-22 06:32N 29°56' W 089°59'2 0.1
2015-Jan-21 09:29N 29°55' W 089°57'6 6.2
2015-Jan-21 08:33N 29°56' W 090°04'0 0.2
2015-Jan-21 07:30N 29°55' W 090°04'0 0.1
2015-Jan-21 06:33N 29°56' W 090°04'0 0.4
2015-Jan-21 05:33N 29°56' W 090°03'0 0.1
2015-Jan-21 04:31N 29°56' W 090°03'0 0.3
2015-Jan-21 03:33N 29°56' W 090°04'0 0.0
2015-Jan-21 02:31N 29°56' W 090°04'0 0.0
2015-Jan-21 01:33N 29°56' W 090°03'  
Track history (hours):
 
Tides and Currents Weather Stations Pressure Air Temp Water Temp Dewpoint Dewpoint Depression Visibility Wind Speed Wind Dir Waves Ship Positions

Whale Watcher II

Owner: Ronald L. Robbins LLC, Cape May, NJ. More information available from US FCC via Universal Licensing System and Coast Guard Vessel Documentation Center.

Last reported at 2015-Jan-31 00:32 UTC. Time now 2015-Jan-31 00:47 UTC.
Position N 29°55' W 090°04'.

Length 22 m.

Type: Towing. MMSI: 367011790.

Date/timePositionNaut miles runAvg speedWind from/ knotsBaromVisibWave heightAir tempDewpointWater temp
2015-Jan-31 00:32N 29°55' W 090°04'0 0.0
2015-Jan-30 23:32N 29°55' W 090°04'0 0.4
2015-Jan-30 22:33N 29°55' W 090°04'10 0.3
2015-Jan-29 11:05N 29°58' W 090°16'0 0.0
2015-Jan-29 10:12N 29°58' W 090°16'0 0.0
2015-Jan-29 09:26N 29°58' W 090°16'3 3.5
2015-Jan-29 08:33N 29°56' W 090°13'4 3.6
2015-Jan-29 07:29N 29°56' W 090°08'4 4.3
2015-Jan-29 06:31N 29°55' W 090°04'0 0.2
2015-Jan-29 05:10N 29°56' W 090°04'0 0.0
2015-Jan-29 03:31N 29°56' W 090°04'0 0.0
2015-Jan-29 02:33N 29°56' W 090°04'0 0.0
2015-Jan-29 01:29N 29°56' W 090°04'0 0.0
2015-Jan-29 00:31N 29°56' W 090°04'0 0.0
2015-Jan-28 23:31N 29°56' W 090°04'0 0.0
2015-Jan-28 22:33N 29°56' W 090°04'0 0.0
2015-Jan-28 21:33N 29°56' W 090°04'0 0.0
2015-Jan-28 20:33N 29°56' W 090°04'0 0.0
2015-Jan-28 19:33N 29°56' W 090°04'2 2.3
2015-Jan-28 18:33N 29°57' W 090°01'3 0.2
2015-Jan-28 01:29N 29°56' W 089°59'4 4.0
2015-Jan-28 00:25N 29°56' W 090°04'0 0.2
2015-Jan-27 23:28N 29°55' W 090°04'0 0.0
2015-Jan-27 22:33N 29°55' W 090°04'3 0.3
2015-Jan-27 13:27N 29°56' W 090°00'15 3.1
2015-Jan-27 08:24N 29°41' W 089°58'15 0.6
2015-Jan-26 08:31N 29°55' W 090°05'0 0.0
2015-Jan-26 07:27N 29°55' W 090°05'0 0.0
2015-Jan-26 05:24N 29°55' W 090°05'1 1.2
2015-Jan-26 04:29N 29°55' W 090°04'0 0.1
2015-Jan-26 03:33N 29°55' W 090°04'0 0.1
2015-Jan-26 02:33N 29°56' W 090°04'0 0.0
2015-Jan-26 01:31N 29°56' W 090°04'5 4.4
2015-Jan-26 00:17N 29°57' W 090°10'2 0.2
2015-Jan-25 15:17N 29°56' W 090°08'4 4.3
2015-Jan-25 14:18N 29°56' W 090°04'2 2.5
2015-Jan-25 13:27N 29°57' W 090°02'4 4.4
2015-Jan-25 12:32N 29°55' W 089°58'3 0.3
2015-Jan-25 04:29N 29°53' W 089°57'3 1.6
2015-Jan-25 02:33N 29°56' W 089°58'5 4.4
2015-Jan-25 01:31N 29°56' W 090°04'0 0.0
2015-Jan-25 00:32N 29°56' W 090°04'0 0.0
2015-Jan-24 23:24N 29°56' W 090°04'0 0.0
2015-Jan-24 22:33N 29°56' W 090°04'0 0.2
2015-Jan-24 21:33N 29°56' W 090°03'0 0.0
2015-Jan-24 20:33N 29°56' W 090°03'4 0.1
2015-Jan-23 02:32N 29°56' W 089°58'11 0.7
2015-Jan-22 10:03N 29°56' W 090°12'3 5.5
2015-Jan-22 09:33N 29°57' W 090°09'4 4.2
2015-Jan-22 08:30N 29°55' W 090°05'2 1.6
2015-Jan-22 07:31N 29°56' W 090°03'4 4.2
2015-Jan-22 06:32N 29°56' W 089°59'2 0.1
2015-Jan-21 09:29N 29°55' W 089°57'6 6.2
2015-Jan-21 08:33N 29°56' W 090°04'0 0.2
2015-Jan-21 07:30N 29°55' W 090°04'0 0.1
2015-Jan-21 06:33N 29°56' W 090°04'0 0.4
2015-Jan-21 05:33N 29°56' W 090°03'0 0.1
2015-Jan-21 04:31N 29°56' W 090°03'0 0.3
2015-Jan-21 03:33N 29°56' W 090°04'0 0.0
2015-Jan-21 02:31N 29°56' W 090°04'0 0.0
2015-Jan-21 01:33N 29°56' W 090°03'  

Dump ship's entire track history